Aviation Digital Data Service (ADDS)

Output produced by TAFs form (0137 UTC 31 July 2016)
found at http://aviationweather.gov/adds/tafs/
 
KTCC 302337Z 3100/3124 21015G25KT P6SM FEW100 
     FM310200 34012G22KT P6SM VCTS BKN080CB 
     FM310400 21009KT P6SM SCT100 BKN150 
     FM311600 20014G24KT P6SM FEW150 
     FM312000 20015G25KT P6SM SCT090